createdAt,value
2023-04-13T00:01:03.027Z,6.13
2023-04-13T00:03:33.668Z,6.15
2023-04-13T00:06:03.569Z,6.69
2023-04-13T00:08:36.075Z,6.69
2023-04-13T00:11:07.813Z,6.94
2023-04-13T00:13:41.395Z,7.20
2023-04-13T00:16:14.697Z,6.75
2023-04-13T00:18:45.270Z,6.24
2023-04-13T00:21:17.324Z,6.05
2023-04-13T00:23:47.471Z,6.99
2023-04-13T00:26:20.779Z,7.10
2023-04-13T00:28:50.514Z,7.27
2023-04-13T00:31:23.913Z,6.60
2023-04-13T00:33:53.537Z,6.71
2023-04-13T00:36:24.972Z,7.34
2023-04-13T00:38:54.660Z,6.15
2023-04-13T00:41:24.396Z,6.35
2023-04-13T00:43:54.232Z,5.63
2023-04-13T00:46:26.650Z,5.81
2023-04-13T00:48:58.356Z,6.41
2023-04-13T00:51:30.319Z,6.72
2023-04-13T00:54:00.627Z,6.57
2023-04-13T00:56:30.992Z,6.82
2023-04-13T00:59:00.701Z,7.00
2023-04-13T01:01:33.139Z,6.57
2023-04-13T01:04:02.889Z,5.88
2023-04-13T01:06:42.214Z,5.96
2023-04-13T01:09:17.941Z,5.78
2023-04-13T01:11:56.434Z,6.45
2023-04-13T01:14:32.357Z,6.79
2023-04-13T01:17:08.712Z,6.76
2023-04-13T01:19:51.944Z,6.14
2023-04-13T01:22:25.676Z,5.81
2023-04-13T01:25:11.638Z,5.55
2023-04-13T01:27:51.877Z,5.28
2023-04-13T01:30:26.275Z,4.85
2023-04-13T01:32:59.924Z,5.60
2023-04-13T01:35:31.433Z,5.16
2023-04-13T01:38:02.434Z,4.18
2023-04-13T01:40:35.088Z,4.30
2023-04-13T01:43:07.391Z,5.05
2023-04-13T01:45:50.701Z,4.66
2023-04-13T01:48:24.869Z,5.33
2023-04-13T01:51:07.477Z,5.61
2023-04-13T01:53:49.376Z,5.81
2023-04-13T01:56:23.337Z,6.47
2023-04-13T01:59:02.623Z,6.67
2023-04-13T02:01:33.265Z,7.34
2023-04-13T02:04:03.905Z,7.52
2023-04-13T02:06:35.153Z,7.55
2023-04-13T02:09:08.393Z,7.02
2023-04-13T02:11:38.611Z,7.01
2023-04-13T02:14:12.577Z,6.34
2023-04-13T02:16:43.790Z,6.98
2023-04-13T02:19:16.452Z,6.71
2023-04-13T02:21:46.273Z,7.13
2023-04-13T02:24:17.145Z,7.15
2023-04-13T02:26:47.836Z,7.51
2023-04-13T02:29:20.090Z,7.19
2023-04-13T02:31:49.854Z,7.32
2023-04-13T02:34:19.541Z,7.02
2023-04-13T02:36:49.222Z,7.13
2023-04-13T02:39:18.923Z,7.12
2023-04-13T02:41:48.616Z,6.28
2023-04-13T02:44:25.885Z,6.14
2023-04-13T02:46:59.688Z,6.14
2023-04-13T02:49:29.339Z,5.94
2023-04-13T02:52:13.602Z,5.76
2023-04-13T02:54:54.909Z,6.08
2023-04-13T02:57:28.552Z,5.71
2023-04-13T03:00:07.797Z,4.95
2023-04-13T03:02:45.535Z,5.37
2023-04-13T03:05:20.068Z,5.51
2023-04-13T03:07:50.224Z,5.53
2023-04-13T03:10:20.642Z,5.87
2023-04-13T03:12:50.820Z,5.96
2023-04-13T03:15:23.836Z,5.61
2023-04-13T03:17:53.540Z,5.73
2023-04-13T03:20:29.376Z,5.87
2023-04-13T03:23:02.813Z,5.85
2023-04-13T03:25:36.344Z,5.83
2023-04-13T03:28:06.925Z,6.08
2023-04-13T03:30:44.989Z,6.24
2023-04-13T03:33:14.628Z,6.13
2023-04-13T03:35:44.853Z,6.13
2023-04-13T03:38:23.750Z,6.15
2023-04-13T03:40:55.037Z,6.13
2023-04-13T03:43:28.038Z,6.10
2023-04-13T03:46:19.113Z,6.47
2023-04-13T03:48:48.979Z,6.33
2023-04-13T03:51:22.613Z,6.40
2023-04-13T03:53:55.315Z,6.27
2023-04-13T03:56:28.102Z,6.22
2023-04-13T03:58:59.475Z,6.28
2023-04-13T04:01:32.942Z,6.24
2023-04-13T04:04:02.984Z,6.07
2023-04-13T04:06:33.998Z,6.32
2023-04-13T04:09:15.905Z,6.46
2023-04-13T04:11:49.913Z,6.37
2023-04-13T04:14:26.795Z,6.37
2023-04-13T04:17:09.677Z,6.52
2023-04-13T04:19:39.413Z,5.91
2023-04-13T04:22:09.785Z,6.08
2023-04-13T04:24:42.918Z,6.37
2023-04-13T04:27:14.582Z,5.80
2023-04-13T04:29:49.198Z,6.20
2023-04-13T04:32:29.991Z,6.37
2023-04-13T04:34:59.699Z,6.85
2023-04-13T04:37:29.985Z,6.55
2023-04-13T04:40:05.765Z,6.75
2023-04-13T04:42:35.508Z,6.59
2023-04-13T04:45:07.447Z,6.46
2023-04-13T04:47:45.260Z,6.89
2023-04-13T04:50:22.124Z,6.30
2023-04-13T04:52:58.611Z,7.07
2023-04-13T04:55:28.611Z,6.82
2023-04-13T04:57:59.326Z,7.09
2023-04-13T05:00:31.021Z,6.62
2023-04-13T05:03:10.913Z,6.85
2023-04-13T05:05:45.700Z,6.71
2023-04-13T05:08:20.667Z,7.96
2023-04-13T05:10:52.702Z,7.60
2023-04-13T05:13:22.879Z,7.29
2023-04-13T05:16:05.915Z,8.40
2023-04-13T05:18:47.178Z,7.78
2023-04-13T05:21:37.573Z,7.73
2023-04-13T05:24:07.533Z,8.45
2023-04-13T05:26:37.973Z,7.86
2023-04-13T05:29:08.735Z,7.85
2023-04-13T05:31:43.231Z,7.74
2023-04-13T05:34:16.681Z,7.71
2023-04-13T05:37:01.281Z,7.87
2023-04-13T05:39:31.008Z,7.91
2023-04-13T05:42:01.515Z,8.06
2023-04-13T05:44:33.885Z,8.08
2023-04-13T05:47:04.146Z,7.84
2023-04-13T05:49:38.935Z,8.42
2023-04-13T05:52:10.695Z,7.55
2023-04-13T05:54:47.367Z,7.98
2023-04-13T05:57:17.201Z,7.92
2023-04-13T05:59:50.248Z,7.68
2023-04-13T06:02:26.800Z,7.86
2023-04-13T06:04:59.562Z,7.75
2023-04-13T06:07:29.583Z,7.59
2023-04-13T06:10:00.955Z,7.76
2023-04-13T06:12:30.896Z,8.07
2023-04-13T06:15:00.542Z,8.28
2023-04-13T06:17:30.912Z,8.00
2023-04-13T06:20:04.337Z,8.39
2023-04-13T06:22:37.038Z,8.01
2023-04-13T06:25:08.694Z,8.25
2023-04-13T06:27:43.586Z,8.43
2023-04-13T06:30:15.004Z,8.22
2023-04-13T06:32:45.541Z,8.03
2023-04-13T06:35:21.273Z,9.32
2023-04-13T06:37:52.648Z,9.73
2023-04-13T06:40:28.504Z,10.12
2023-04-13T06:43:08.956Z,9.95
2023-04-13T06:45:50.709Z,10.26
2023-04-13T06:48:24.085Z,9.70
2023-04-13T06:51:01.880Z,9.31
2023-04-13T06:53:34.361Z,9.46
2023-04-13T06:56:04.095Z,9.93
2023-04-13T06:58:34.637Z,9.10
2023-04-13T07:01:04.423Z,9.30
2023-04-13T07:03:37.025Z,9.64
2023-04-13T07:06:11.804Z,10.33
2023-04-13T07:08:42.247Z,9.66
2023-04-13T07:11:12.000Z,10.88
2023-04-13T07:13:42.327Z,9.75
2023-04-13T07:16:14.754Z,10.21
2023-04-13T07:18:47.729Z,9.94
2023-04-13T07:21:20.024Z,10.39
2023-04-13T07:24:03.359Z,9.90
2023-04-13T07:26:34.365Z,9.96
2023-04-13T07:29:04.252Z,9.14
2023-04-13T07:31:38.456Z,9.43
2023-04-13T07:34:09.287Z,9.93
2023-04-13T07:36:47.363Z,9.94
2023-04-13T07:39:21.941Z,10.25
2023-04-13T07:41:54.213Z,10.61
2023-04-13T07:44:31.337Z,10.66
2023-04-13T07:47:01.169Z,10.53
2023-04-13T07:49:32.989Z,11.16
2023-04-13T07:52:05.396Z,11.04
2023-04-13T07:54:38.897Z,10.75
2023-04-13T07:57:11.318Z,10.95
2023-04-13T07:59:46.646Z,10.94
2023-04-13T08:02:18.398Z,10.76
2023-04-13T08:04:52.965Z,12.63
2023-04-13T08:07:29.746Z,12.12
2023-04-13T08:09:59.664Z,11.42
2023-04-13T08:12:31.558Z,11.03
2023-04-13T08:15:01.220Z,11.00
2023-04-13T08:17:31.805Z,11.26
2023-04-13T08:20:04.241Z,11.29
2023-04-13T08:22:37.172Z,11.12
2023-04-13T08:25:10.282Z,11.00
2023-04-13T08:27:40.779Z,10.75
2023-04-13T08:30:12.765Z,10.49
2023-04-13T08:32:55.475Z,10.64
2023-04-13T08:35:26.796Z,10.70
2023-04-13T08:37:59.212Z,10.70
2023-04-13T08:40:29.355Z,10.84
2023-04-13T08:42:59.958Z,10.70
2023-04-13T08:45:30.777Z,10.54
2023-04-13T08:48:02.068Z,10.10
2023-04-13T08:50:34.075Z,10.43
2023-04-13T08:53:07.416Z,10.61
2023-04-13T08:55:37.398Z,10.36
2023-04-13T08:58:08.576Z,10.44
2023-04-13T09:00:39.020Z,10.89
2023-04-13T09:03:14.073Z,10.95
2023-04-13T09:05:49.437Z,10.82
2023-04-13T09:08:22.751Z,11.06
2023-04-13T09:10:54.349Z,10.61
2023-04-13T09:13:24.090Z,11.15
2023-04-13T09:15:54.043Z,11.45
2023-04-13T09:18:29.541Z,11.20
2023-04-13T09:21:08.331Z,11.32
2023-04-13T09:23:40.686Z,11.42
2023-04-13T09:26:11.469Z,11.42
2023-04-13T09:28:54.301Z,11.41
2023-04-13T09:31:25.853Z,11.46
2023-04-13T09:33:56.001Z,11.60
2023-04-13T09:36:25.675Z,11.17
2023-04-13T09:38:59.595Z,11.50
2023-04-13T09:41:37.147Z,11.23
2023-04-13T09:44:20.444Z,10.99
2023-04-13T09:47:00.088Z,11.06
2023-04-13T09:49:39.342Z,11.59
2023-04-13T09:52:10.213Z,10.97
2023-04-13T09:54:42.545Z,11.21
2023-04-13T09:57:12.263Z,10.92
2023-04-13T09:59:42.383Z,11.05
2023-04-13T10:02:13.065Z,11.42
2023-04-13T10:04:43.895Z,11.48
2023-04-13T10:07:13.605Z,11.79
2023-04-13T10:09:46.161Z,12.09
2023-04-13T10:12:19.580Z,11.81
2023-04-13T10:14:51.986Z,11.59
2023-04-13T10:17:42.876Z,12.02
2023-04-13T10:20:15.326Z,11.98
2023-04-13T10:22:48.763Z,11.88
2023-04-13T10:25:32.822Z,12.36
2023-04-13T10:28:04.368Z,12.29
2023-04-13T10:30:34.129Z,12.50
2023-04-13T10:33:05.935Z,12.52
2023-04-13T10:35:40.794Z,11.88
2023-04-13T10:38:12.614Z,12.03
2023-04-13T10:40:49.678Z,12.51
2023-04-13T10:43:29.310Z,12.50
2023-04-13T10:46:09.906Z,12.70
2023-04-13T10:48:40.235Z,13.47
2023-04-13T10:51:10.063Z,12.77
2023-04-13T10:53:39.892Z,12.96
2023-04-13T10:56:21.237Z,13.75
2023-04-13T10:58:55.703Z,13.65
2023-04-13T11:01:25.754Z,14.38
2023-04-13T11:04:04.399Z,14.73
2023-04-13T11:06:39.476Z,14.60
2023-04-13T11:09:13.746Z,14.62
2023-04-13T11:11:46.690Z,14.35
2023-04-13T11:14:23.797Z,14.34
2023-04-13T11:16:58.511Z,13.56
2023-04-13T11:19:28.430Z,12.89
2023-04-13T11:21:59.867Z,12.95
2023-04-13T11:24:30.258Z,13.40
2023-04-13T11:27:03.907Z,13.06
2023-04-13T11:29:33.638Z,13.06
2023-04-13T11:32:03.801Z,13.32
2023-04-13T11:34:33.453Z,13.39
2023-04-13T11:37:06.232Z,13.90
2023-04-13T11:39:38.596Z,13.79
2023-04-13T11:42:11.127Z,14.10
2023-04-13T11:44:42.883Z,14.46
2023-04-13T11:47:15.413Z,14.49
2023-04-13T11:49:48.101Z,14.70
2023-04-13T11:52:18.288Z,14.19
2023-04-13T11:54:49.290Z,14.31
2023-04-13T11:57:22.244Z,14.69
2023-04-13T11:59:54.262Z,14.85
2023-04-13T12:02:29.812Z,14.68
2023-04-13T12:05:00.745Z,14.12
2023-04-13T12:07:31.359Z,13.87
2023-04-13T12:10:05.802Z,14.21
2023-04-13T12:15:33.186Z,14.13
2023-04-13T12:18:14.310Z,14.11
2023-04-13T12:20:48.380Z,13.78
2023-04-13T12:23:24.022Z,13.96
2023-04-13T12:25:58.757Z,13.47
2023-04-13T12:28:35.853Z,12.95
2023-04-13T12:31:07.621Z,13.31
2023-04-13T12:33:37.588Z,13.55
2023-04-13T12:36:11.410Z,13.65
2023-04-13T12:38:41.181Z,13.61
2023-04-13T12:41:12.614Z,13.89
2023-04-13T12:43:44.891Z,14.15
2023-04-13T12:46:14.914Z,13.97
2023-04-13T12:48:44.608Z,14.32
2023-04-13T12:51:14.349Z,14.55
2023-04-13T12:53:44.146Z,14.43
2023-04-13T12:56:13.839Z,14.32
2023-04-13T12:58:46.265Z,14.10
2023-04-13T13:01:16.520Z,13.56
2023-04-13T13:03:46.589Z,12.61
2023-04-13T13:06:16.358Z,12.31
2023-04-13T13:08:46.173Z,12.19
2023-04-13T13:11:15.857Z,12.44
2023-04-13T13:13:48.480Z,12.26
2023-04-13T13:16:19.623Z,12.96
2023-04-13T13:18:51.539Z,13.56
2023-04-13T13:21:22.085Z,13.48
2023-04-13T13:23:52.682Z,13.61
2023-04-13T13:26:24.376Z,13.75
2023-04-13T13:28:57.599Z,13.48
2023-04-13T13:31:27.768Z,13.31
2023-04-13T13:33:57.417Z,13.30
2023-04-13T13:36:27.909Z,12.93
2023-04-13T13:39:00.053Z,13.02
2023-04-13T13:41:29.867Z,13.47
2023-04-13T13:44:02.202Z,14.00
2023-04-13T13:46:32.063Z,14.34
2023-04-13T13:49:05.830Z,14.58
2023-04-13T13:51:56.084Z,14.81
2023-04-13T13:54:28.846Z,14.69
2023-04-13T13:56:58.469Z,14.65
2023-04-13T13:59:30.730Z,14.51
2023-04-13T14:02:01.241Z,15.07
2023-04-13T14:04:31.068Z,14.65
2023-04-13T14:07:00.966Z,14.66
2023-04-13T14:09:31.032Z,14.60
2023-04-13T14:12:02.105Z,15.03
2023-04-13T14:14:34.384Z,14.96
2023-04-13T14:17:04.022Z,14.53
2023-04-13T14:19:34.760Z,14.23
2023-04-13T14:22:04.423Z,14.19
2023-04-13T14:24:34.062Z,14.35
2023-04-13T14:27:03.695Z,14.35
2023-04-13T14:29:36.150Z,14.66
2023-04-13T14:32:05.942Z,14.52
2023-04-13T14:34:35.605Z,14.44
2023-04-13T14:37:05.270Z,14.44
2023-04-13T14:39:34.928Z,14.53
2023-04-13T14:42:04.663Z,14.25
2023-04-13T14:44:36.957Z,13.88
2023-04-13T14:47:08.962Z,13.65
2023-04-13T14:49:39.312Z,13.59
2023-04-13T14:52:09.143Z,13.22
2023-04-13T14:54:39.256Z,13.55
2023-04-13T14:57:10.040Z,13.40
2023-04-13T14:59:42.341Z,13.14
2023-04-13T15:02:12.177Z,13.24
2023-04-13T15:04:42.725Z,13.49
2023-04-13T15:07:12.452Z,13.30
2023-04-13T15:09:42.205Z,13.30
2023-04-13T15:12:13.646Z,13.26
2023-04-13T15:14:47.020Z,13.65
2023-04-13T15:17:16.663Z,13.28
2023-04-13T15:19:46.313Z,13.21
2023-04-13T15:22:16.093Z,14.03
2023-04-13T15:24:45.752Z,13.85
2023-04-13T15:27:15.457Z,13.43
2023-04-13T15:29:47.763Z,13.38
2023-04-13T15:32:17.427Z,13.75
2023-04-13T15:34:47.164Z,14.11
2023-04-13T15:37:16.819Z,13.27
2023-04-13T15:39:46.432Z,13.48
2023-04-13T15:42:16.173Z,14.09
2023-04-13T15:44:48.566Z,14.11
2023-04-13T15:47:18.381Z,14.31
2023-04-13T15:49:47.981Z,14.10
2023-04-13T15:52:17.661Z,14.23
2023-04-13T15:54:47.859Z,14.11
2023-04-13T15:57:18.840Z,14.08
2023-04-13T15:59:51.054Z,14.06
2023-04-13T16:02:20.770Z,14.37
2023-04-13T16:04:51.062Z,14.31
2023-04-13T16:07:21.127Z,13.78
2023-04-13T16:09:56.310Z,14.24
2023-04-13T16:12:31.490Z,14.24
2023-04-13T16:15:06.331Z,13.82
2023-04-13T16:17:40.437Z,14.02
2023-04-13T16:20:18.233Z,14.32
2023-04-13T16:22:52.310Z,15.03
2023-04-13T16:25:22.474Z,14.67
2023-04-13T16:27:54.824Z,14.59
2023-04-13T16:30:30.511Z,14.74
2023-04-13T16:33:00.244Z,15.06
2023-04-13T16:35:30.029Z,14.23
2023-04-13T16:37:59.682Z,14.72
2023-04-13T16:40:29.410Z,14.49
2023-04-13T16:42:59.065Z,14.34
2023-04-13T16:45:31.569Z,14.24
2023-04-13T16:48:01.412Z,15.01
2023-04-13T16:50:32.314Z,14.34
2023-04-13T16:53:02.673Z,13.89
2023-04-13T16:55:32.309Z,13.05
2023-04-13T16:58:01.947Z,13.96
2023-04-13T17:00:35.382Z,14.53
2023-04-13T17:03:05.326Z,14.18
2023-04-13T17:05:35.068Z,14.10
2023-04-13T17:08:06.033Z,13.18
2023-04-13T17:10:36.473Z,13.41
2023-04-13T17:13:06.159Z,12.84
2023-04-13T17:15:38.544Z,12.56
2023-04-13T17:18:08.396Z,13.10
2023-04-13T17:20:39.818Z,13.37
2023-04-13T17:23:09.533Z,13.43
2023-04-13T17:25:41.648Z,13.76
2023-04-13T17:28:11.640Z,11.68
2023-04-13T17:30:43.874Z,12.58
2023-04-13T17:33:13.644Z,12.46
2023-04-13T17:35:43.318Z,12.23
2023-04-13T17:38:12.998Z,12.18
2023-04-13T17:40:42.646Z,12.07
2023-04-13T17:43:12.288Z,12.15
2023-04-13T17:45:44.532Z,11.97
2023-04-13T17:48:14.219Z,11.97
2023-04-13T17:50:43.945Z,12.29
2023-04-13T17:53:13.578Z,12.34
2023-04-13T17:55:43.260Z,11.63
2023-04-13T17:58:13.529Z,12.05
2023-04-13T18:00:45.741Z,11.97
2023-04-13T18:03:15.476Z,12.48
2023-04-13T18:05:47.217Z,11.74
2023-04-13T18:08:16.892Z,11.33
2023-04-13T18:10:46.553Z,10.86
2023-04-13T18:13:16.966Z,11.20
2023-04-13T18:15:50.448Z,11.30
2023-04-13T18:18:24.388Z,10.80
2023-04-13T18:20:54.794Z,10.89
2023-04-13T18:23:24.685Z,10.94
2023-04-13T18:25:54.562Z,10.75
2023-04-13T18:28:24.219Z,10.48
2023-04-13T18:31:02.143Z,10.78
2023-04-13T18:33:32.149Z,10.93
2023-04-13T18:36:01.840Z,10.63
2023-04-13T18:38:31.529Z,10.52
2023-04-13T18:41:01.307Z,10.62
2023-04-13T18:43:31.172Z,10.55
2023-04-13T18:46:03.767Z,10.44
2023-04-13T18:48:33.550Z,10.29
2023-04-13T18:51:03.881Z,10.22
2023-04-13T18:53:34.068Z,10.23
2023-04-13T18:56:03.701Z,10.13
2023-04-13T18:58:33.398Z,10.19
2023-04-13T19:01:05.688Z,10.15
2023-04-13T19:03:35.572Z,10.13
2023-04-13T19:06:05.825Z,10.10
2023-04-13T19:08:35.547Z,10.27
2023-04-13T19:11:05.261Z,10.38
2023-04-13T19:13:34.980Z,10.05
2023-04-13T19:16:09.378Z,9.85
2023-04-13T19:18:39.238Z,9.87
2023-04-13T19:21:09.289Z,9.84
2023-04-13T19:23:40.429Z,9.68
2023-04-13T19:26:10.425Z,10.06
2023-04-13T19:28:40.116Z,10.08
2023-04-13T19:31:12.487Z,10.39
2023-04-13T19:33:42.411Z,10.40
2023-04-13T19:36:12.316Z,10.37
2023-04-13T19:38:42.438Z,10.42
2023-04-13T19:41:12.247Z,9.62
2023-04-13T19:43:41.931Z,9.56
2023-04-13T19:46:14.274Z,9.45
2023-04-13T19:48:43.998Z,9.54
2023-04-13T19:51:13.662Z,9.49
2023-04-13T19:53:43.306Z,9.53
2023-04-13T19:56:13.409Z,9.64
2023-04-13T19:58:43.092Z,9.85
2023-04-13T20:01:16.233Z,10.18
2023-04-13T20:03:46.440Z,10.59
2023-04-13T20:06:16.484Z,10.49
2023-04-13T20:08:46.631Z,10.25
2023-04-13T20:11:16.431Z,10.76
2023-04-13T20:13:48.376Z,11.06
2023-04-13T20:16:20.683Z,11.18
2023-04-13T20:18:50.582Z,11.38
2023-04-13T20:21:20.429Z,11.40
2023-04-13T20:23:50.098Z,11.29
2023-04-13T20:26:19.816Z,11.09
2023-04-13T20:28:49.532Z,11.22
2023-04-13T20:31:21.813Z,11.17
2023-04-13T20:33:51.655Z,11.11
2023-04-13T20:36:21.850Z,10.86
2023-04-13T20:38:51.546Z,10.68
2023-04-13T20:41:22.134Z,10.38
2023-04-13T20:43:53.365Z,10.18
2023-04-13T20:46:34.413Z,9.92
2023-04-13T20:49:05.589Z,9.60
2023-04-13T20:51:35.925Z,9.55
2023-04-13T20:54:06.427Z,9.53
2023-04-13T20:56:36.274Z,9.29
2023-04-13T20:59:05.943Z,9.75
2023-04-13T21:01:38.784Z,9.33
2023-04-13T21:04:08.545Z,9.25
2023-04-13T21:06:38.332Z,9.31
2023-04-13T21:09:08.853Z,9.22
2023-04-13T21:11:38.868Z,9.36
2023-04-13T21:14:08.564Z,9.62
2023-04-13T21:16:41.175Z,9.70
2023-04-13T21:19:10.941Z,9.99
2023-04-13T21:21:40.923Z,10.13
2023-04-13T21:24:11.144Z,10.23
2023-04-13T21:26:41.055Z,9.83
2023-04-13T21:29:11.320Z,9.38
2023-04-13T21:31:43.576Z,9.53
2023-04-13T21:34:13.188Z,9.34
2023-04-13T21:39:16.176Z,9.76
2023-04-13T21:41:45.855Z,9.55
2023-04-13T21:44:28.682Z,9.90
2023-04-13T21:47:01.830Z,9.70
2023-04-13T21:49:31.558Z,10.10
2023-04-13T21:52:01.237Z,9.92
2023-04-13T21:54:30.978Z,9.33
2023-04-13T21:57:00.631Z,9.88
2023-04-13T21:59:30.343Z,9.27
2023-04-13T22:02:02.643Z,9.38
2023-04-13T22:04:32.484Z,9.51
2023-04-13T22:07:02.178Z,9.14
2023-04-13T22:09:31.826Z,9.26
2023-04-13T22:12:01.490Z,9.37
2023-04-13T22:14:31.127Z,9.13
2023-04-13T22:17:03.920Z,9.64
2023-04-13T22:19:33.545Z,10.40
2023-04-13T22:22:03.206Z,10.31
2023-04-13T22:24:32.878Z,10.19
2023-04-13T22:27:04.800Z,9.91
2023-04-13T22:29:34.631Z,9.67
2023-04-13T22:32:06.890Z,9.52
2023-04-13T22:34:36.549Z,9.48
2023-04-13T22:37:07.154Z,9.34
2023-04-13T22:39:36.931Z,9.14
2023-04-13T22:42:07.061Z,9.82
2023-04-13T22:44:36.976Z,9.73
2023-04-13T22:47:09.180Z,9.80
2023-04-13T22:49:38.845Z,9.71
2023-04-13T22:52:08.773Z,9.59
2023-04-13T22:54:38.517Z,9.92
2023-04-13T22:57:08.182Z,9.89
2023-04-13T22:59:37.812Z,10.11
2023-04-13T23:02:10.120Z,9.74
2023-04-13T23:04:40.661Z,9.69
2023-04-13T23:07:10.521Z,9.66
2023-04-13T23:09:40.159Z,10.44
2023-04-13T23:12:10.360Z,10.40
2023-04-13T23:14:40.542Z,10.43
2023-04-13T23:17:12.768Z,9.01
2023-04-13T23:19:42.469Z,8.93
2023-04-13T23:22:12.123Z,8.63
2023-04-13T23:24:41.784Z,8.63
2023-04-13T23:27:11.454Z,8.32
2023-04-13T23:29:45.674Z,8.27
2023-04-13T23:32:17.982Z,8.40
2023-04-13T23:34:47.635Z,8.75
2023-04-13T23:37:17.386Z,8.65
2023-04-13T23:39:47.022Z,8.76
2023-04-13T23:42:16.766Z,8.79
2023-04-13T23:44:46.467Z,9.06
2023-04-13T23:47:18.774Z,8.24
2023-04-13T23:49:48.527Z,8.13
2023-04-13T23:52:18.202Z,8.04
2023-04-13T23:54:47.850Z,8.02
2023-04-13T23:57:17.588Z,8.60
2023-04-13T23:59:47.203Z,8.63
